createdAt,value
2022-10-22T00:01:20.134Z,13.90
2022-10-22T00:03:48.180Z,13.83
2022-10-22T00:06:16.342Z,14.08
2022-10-22T00:08:44.496Z,13.93
2022-10-22T00:11:14.779Z,14.07
2022-10-22T00:13:44.642Z,13.83
2022-10-22T00:16:12.971Z,14.14
2022-10-22T00:18:41.365Z,14.05
2022-10-22T00:21:09.727Z,13.92
2022-10-22T00:23:37.631Z,13.75
2022-10-22T00:26:05.667Z,13.65
2022-10-22T00:28:33.647Z,14.07
2022-10-22T00:31:03.266Z,13.87
2022-10-22T00:33:32.257Z,13.97
2022-10-22T00:36:00.300Z,14.07
2022-10-22T00:38:28.188Z,14.14
2022-10-22T00:40:56.294Z,14.14
2022-10-22T00:43:24.344Z,13.90
2022-10-22T00:45:52.189Z,14.09
2022-10-22T00:48:26.389Z,13.94
2022-10-22T00:50:57.257Z,14.18
2022-10-22T00:53:31.263Z,14.20
2022-10-22T00:55:59.759Z,14.14
2022-10-22T00:58:30.663Z,14.00
2022-10-22T01:00:59.157Z,13.93
2022-10-22T01:03:29.367Z,14.04
2022-10-22T01:05:59.384Z,14.10
2022-10-22T01:08:43.033Z,14.20
2022-10-22T01:11:21.344Z,14.20
2022-10-22T01:13:58.990Z,14.28
2022-10-22T01:16:35.760Z,14.02
2022-10-22T01:19:21.641Z,13.96
2022-10-22T01:21:56.836Z,14.16
2022-10-22T01:24:47.068Z,14.03
2022-10-22T01:27:41.301Z,14.07
2022-10-22T01:30:13.651Z,14.01
2022-10-22T01:32:45.988Z,14.09
2022-10-22T01:35:19.191Z,14.08
2022-10-22T01:37:50.014Z,14.09
2022-10-22T01:40:19.951Z,14.15
2022-10-22T01:42:57.595Z,14.11
2022-10-22T01:45:27.509Z,14.08
2022-10-22T01:48:03.926Z,13.91
2022-10-22T01:50:57.847Z,14.17
2022-10-22T01:53:35.580Z,14.12
2022-10-22T01:56:16.309Z,14.22
2022-10-22T01:58:52.904Z,14.24
2022-10-22T02:01:31.954Z,14.44
2022-10-22T02:04:08.274Z,14.44
2022-10-22T02:06:40.255Z,14.57
2022-10-22T02:09:09.881Z,14.54
2022-10-22T02:11:38.694Z,14.81
2022-10-22T02:14:09.655Z,14.78
2022-10-22T02:16:43.792Z,14.67
2022-10-22T02:19:19.557Z,14.61
2022-10-22T02:21:47.443Z,17.82
2022-10-22T02:24:16.097Z,15.95
2022-10-22T02:26:51.547Z,15.77
2022-10-22T02:29:24.416Z,16.15
2022-10-22T02:31:57.051Z,15.77
2022-10-22T02:34:29.606Z,16.08
2022-10-22T02:36:58.787Z,15.83
2022-10-22T02:39:30.443Z,16.27
2022-10-22T02:42:02.271Z,16.19
2022-10-22T02:44:30.492Z,16.17
2022-10-22T02:47:00.901Z,15.64
2022-10-22T02:49:34.783Z,15.62
2022-10-22T02:52:05.780Z,15.83
2022-10-22T02:54:33.902Z,15.89
2022-10-22T02:57:02.325Z,15.96
2022-10-22T02:59:30.397Z,16.01
2022-10-22T03:01:59.696Z,16.18
2022-10-22T03:04:28.041Z,15.90
2022-10-22T03:06:56.751Z,16.04
2022-10-22T03:09:25.056Z,15.86
2022-10-22T03:11:53.040Z,16.10
2022-10-22T03:14:21.136Z,15.97
2022-10-22T03:16:49.011Z,16.07
2022-10-22T03:19:18.290Z,16.09
2022-10-22T03:21:50.603Z,16.10
2022-10-22T03:24:22.635Z,16.21
2022-10-22T03:26:53.002Z,16.35
2022-10-22T03:29:24.860Z,16.09
2022-10-22T03:31:53.371Z,16.31
2022-10-22T03:34:22.679Z,16.38
2022-10-22T03:36:51.074Z,16.28
2022-10-22T03:39:20.183Z,16.25
2022-10-22T03:41:49.352Z,16.27
2022-10-22T03:44:18.788Z,16.29
2022-10-22T03:46:46.599Z,16.41
2022-10-22T03:49:14.423Z,16.38
2022-10-22T03:51:43.764Z,16.40
2022-10-22T03:54:11.672Z,16.27
2022-10-22T03:56:39.573Z,16.03
2022-10-22T03:59:07.504Z,16.25
2022-10-22T04:01:35.562Z,16.32
2022-10-22T04:04:03.463Z,16.26
2022-10-22T04:06:31.737Z,16.18
2022-10-22T04:09:01.209Z,15.85
2022-10-22T04:11:29.470Z,16.14
2022-10-22T04:13:57.481Z,16.21
2022-10-22T04:16:31.027Z,16.21
2022-10-22T04:18:59.343Z,16.44
2022-10-22T04:21:27.621Z,16.23
2022-10-22T04:23:55.825Z,16.54
2022-10-22T04:26:26.087Z,16.19
2022-10-22T04:28:55.048Z,16.06
2022-10-22T04:31:25.903Z,16.04
2022-10-22T04:33:55.602Z,15.89
2022-10-22T04:36:24.278Z,15.90
2022-10-22T04:38:56.385Z,15.96
2022-10-22T04:41:45.718Z,16.00
2022-10-22T04:44:18.331Z,15.81
2022-10-22T04:46:46.925Z,15.89
2022-10-22T04:49:14.872Z,15.63
2022-10-22T04:51:42.840Z,15.68
2022-10-22T04:54:10.653Z,15.60
2022-10-22T04:56:40.146Z,15.65
2022-10-22T04:59:10.390Z,15.86
2022-10-22T05:01:43.244Z,15.83
2022-10-22T05:04:13.928Z,15.81
2022-10-22T05:06:42.240Z,16.05
2022-10-22T05:09:13.834Z,16.02
2022-10-22T05:11:46.270Z,15.89
2022-10-22T05:14:14.486Z,15.74
2022-10-22T05:16:42.404Z,15.79
2022-10-22T05:19:15.454Z,15.89
2022-10-22T05:21:43.380Z,15.83
2022-10-22T05:24:11.285Z,15.79
2022-10-22T05:26:39.316Z,15.64
2022-10-22T05:29:08.764Z,16.01
2022-10-22T05:31:37.173Z,15.82
2022-10-22T05:34:05.389Z,15.99
2022-10-22T05:36:33.204Z,15.88
2022-10-22T05:39:01.222Z,15.85
2022-10-22T05:41:30.335Z,15.95
2022-10-22T05:43:59.049Z,15.96
2022-10-22T05:46:30.124Z,15.93
2022-10-22T05:49:00.089Z,15.74
2022-10-22T05:51:31.045Z,15.84
2022-10-22T05:54:01.267Z,15.82
2022-10-22T05:56:31.937Z,15.92
2022-10-22T05:59:00.492Z,15.81
2022-10-22T06:01:31.844Z,15.85
2022-10-22T06:04:01.255Z,15.75
2022-10-22T06:06:32.935Z,16.00
2022-10-22T06:09:03.743Z,15.90
2022-10-22T06:11:34.967Z,16.04
2022-10-22T06:14:03.680Z,16.13
2022-10-22T06:16:33.004Z,16.00
2022-10-22T06:19:02.030Z,16.12
2022-10-22T06:21:31.344Z,15.93
2022-10-22T06:24:00.515Z,16.12
2022-10-22T06:26:28.960Z,15.64
2022-10-22T06:28:57.737Z,15.82
2022-10-22T06:31:26.191Z,15.72
2022-10-22T06:33:55.967Z,15.61
2022-10-22T06:36:25.216Z,15.48
2022-10-22T06:38:54.157Z,15.54
2022-10-22T06:41:25.580Z,15.64
2022-10-22T06:43:57.360Z,15.50
2022-10-22T06:46:26.441Z,15.32
2022-10-22T06:48:57.942Z,15.16
2022-10-22T06:51:26.727Z,15.25
2022-10-22T06:53:55.466Z,15.37
2022-10-22T06:56:25.673Z,15.42
2022-10-22T06:58:55.967Z,15.32
2022-10-22T07:01:26.560Z,15.19
2022-10-22T07:03:56.210Z,15.31
2022-10-22T07:06:25.534Z,15.29
2022-10-22T07:08:54.699Z,15.39
2022-10-22T07:11:25.156Z,15.46
2022-10-22T07:13:54.670Z,15.44
2022-10-22T07:16:24.850Z,15.33
2022-10-22T07:18:57.184Z,15.41
2022-10-22T07:21:26.126Z,15.41
2022-10-22T07:23:54.231Z,15.44
2022-10-22T07:26:22.341Z,15.60
2022-10-22T07:28:50.156Z,15.47
2022-10-22T07:31:19.200Z,15.52
2022-10-22T07:33:47.401Z,15.57
2022-10-22T07:36:18.442Z,15.75
2022-10-22T07:38:47.336Z,15.69
2022-10-22T07:41:17.146Z,15.92
2022-10-22T07:43:45.329Z,15.72
2022-10-22T07:46:13.590Z,15.58
2022-10-22T07:48:41.473Z,16.06
2022-10-22T07:51:09.735Z,16.28
2022-10-22T07:53:39.091Z,16.29
2022-10-22T07:56:07.746Z,16.26
2022-10-22T07:58:36.023Z,16.21
2022-10-22T08:01:05.879Z,16.39
2022-10-22T08:03:34.210Z,16.52
2022-10-22T08:06:02.524Z,16.21
2022-10-22T08:08:31.140Z,16.37
2022-10-22T08:11:02.762Z,16.46
2022-10-22T08:13:31.445Z,16.56
2022-10-22T08:16:00.473Z,16.66
2022-10-22T08:18:28.767Z,16.77
2022-10-22T08:20:56.675Z,16.64
2022-10-22T08:23:28.301Z,16.93
2022-10-22T08:25:57.595Z,16.89
2022-10-22T08:28:28.736Z,16.99
2022-10-22T08:30:56.857Z,16.93
2022-10-22T08:33:24.776Z,17.07
2022-10-22T08:35:53.812Z,17.11
2022-10-22T08:38:24.460Z,17.01
2022-10-22T08:40:54.875Z,17.02
2022-10-22T08:43:53.307Z,16.82
2022-10-22T08:46:36.476Z,17.13
2022-10-22T08:51:40.297Z,17.27
2022-10-22T08:54:20.297Z,17.40
2022-10-22T08:56:58.587Z,17.45
2022-10-22T08:59:35.969Z,17.40
2022-10-22T09:02:16.971Z,17.49
2022-10-22T09:04:49.249Z,17.44
2022-10-22T09:07:17.439Z,17.60
2022-10-22T09:09:52.723Z,17.51
2022-10-22T09:12:25.907Z,17.52
2022-10-22T09:14:55.744Z,17.90
2022-10-22T09:17:35.771Z,17.91
2022-10-22T09:20:15.968Z,17.94
2022-10-22T09:22:51.515Z,18.14
2022-10-22T09:25:21.984Z,18.32
2022-10-22T09:27:52.588Z,18.24
2022-10-22T09:30:23.897Z,18.49
2022-10-22T09:32:55.887Z,18.32
2022-10-22T09:35:25.456Z,18.59
2022-10-22T09:37:57.944Z,18.33
2022-10-22T09:40:25.953Z,18.56
2022-10-22T09:42:53.857Z,18.19
2022-10-22T09:45:26.643Z,18.21
2022-10-22T09:48:11.151Z,17.95
2022-10-22T09:50:44.271Z,18.25
2022-10-22T09:53:20.627Z,18.34
2022-10-22T09:55:57.419Z,18.27
2022-10-22T09:58:25.931Z,18.41
2022-10-22T10:00:58.439Z,18.53
2022-10-22T10:03:30.209Z,18.87
2022-10-22T10:06:04.719Z,18.34
2022-10-22T10:08:34.821Z,18.49
2022-10-22T10:11:10.470Z,18.42
2022-10-22T10:13:51.427Z,18.47
2022-10-22T10:16:42.579Z,18.82
2022-10-22T10:19:28.159Z,18.50
2022-10-22T10:22:03.629Z,18.92
2022-10-22T10:24:46.414Z,19.22
2022-10-22T10:27:21.771Z,19.27
2022-10-22T10:29:58.683Z,19.03
2022-10-22T10:32:44.998Z,19.18
2022-10-22T10:35:21.391Z,18.97
2022-10-22T10:38:09.762Z,18.98
2022-10-22T10:40:46.639Z,19.15
2022-10-22T10:43:18.182Z,19.21
2022-10-22T10:45:56.314Z,19.19
2022-10-22T10:48:46.453Z,19.66
2022-10-22T10:51:26.526Z,19.57
2022-10-22T10:54:15.152Z,19.57
2022-10-22T10:56:48.443Z,19.36
2022-10-22T10:59:24.789Z,19.71
2022-10-22T11:02:20.111Z,19.78
2022-10-22T11:05:20.439Z,19.54
2022-10-22T11:07:55.946Z,19.76
2022-10-22T11:10:31.557Z,19.83
2022-10-22T11:13:07.014Z,19.59
2022-10-22T11:15:38.484Z,19.75
2022-10-22T11:18:16.392Z,19.96
2022-10-22T11:20:56.543Z,19.78
2022-10-22T11:23:31.345Z,19.68
2022-10-22T11:26:03.039Z,19.86
2022-10-22T11:28:38.432Z,19.65
2022-10-22T11:31:14.861Z,20.36
2022-10-22T11:33:52.690Z,20.11
2022-10-22T11:38:58.761Z,20.63
2022-10-22T11:41:30.666Z,20.40
2022-10-22T11:44:11.539Z,20.32
2022-10-22T11:46:46.862Z,20.43
2022-10-22T11:49:24.433Z,20.87
2022-10-22T11:52:07.755Z,20.89
2022-10-22T11:54:45.685Z,20.89
2022-10-22T11:59:51.344Z,20.77
2022-10-22T12:02:32.425Z,20.63
2022-10-22T12:05:19.903Z,20.67
2022-10-22T12:07:57.168Z,20.75
2022-10-22T12:10:28.419Z,21.01
2022-10-22T12:12:59.086Z,20.53
2022-10-22T12:15:28.821Z,20.94
2022-10-22T12:18:02.143Z,20.83
2022-10-22T12:20:31.166Z,20.83
2022-10-22T12:23:00.900Z,20.72
2022-10-22T12:25:35.729Z,20.94
2022-10-22T12:28:04.058Z,20.71
2022-10-22T12:30:35.068Z,20.03
2022-10-22T12:33:05.846Z,20.16
2022-10-22T12:35:36.981Z,20.99
2022-10-22T12:38:15.736Z,21.03
2022-10-22T12:40:47.474Z,21.21
2022-10-22T12:43:18.839Z,21.20
2022-10-22T12:45:48.722Z,21.59
2022-10-22T12:48:20.358Z,21.33
2022-10-22T12:50:50.996Z,21.71
2022-10-22T12:53:24.162Z,21.61
2022-10-22T12:55:54.809Z,21.51
2022-10-22T12:58:26.389Z,21.13
2022-10-22T13:00:58.413Z,21.33
2022-10-22T13:03:29.275Z,21.47
2022-10-22T13:05:57.307Z,21.68
2022-10-22T13:08:29.207Z,22.36
2022-10-22T13:11:08.975Z,21.70
2022-10-22T13:13:45.546Z,21.45
2022-10-22T13:16:20.109Z,21.25
2022-10-22T13:18:49.138Z,21.28
2022-10-22T13:21:26.384Z,21.85
2022-10-22T13:23:59.412Z,21.55
2022-10-22T13:26:34.359Z,22.07
2022-10-22T13:29:04.247Z,22.05
2022-10-22T13:31:34.508Z,21.45
2022-10-22T13:34:09.824Z,21.71
2022-10-22T13:36:40.233Z,21.63
2022-10-22T13:39:17.095Z,21.40
2022-10-22T13:41:45.137Z,22.01
2022-10-22T13:44:13.296Z,22.01
2022-10-22T13:46:42.961Z,22.13
2022-10-22T13:49:16.595Z,21.95
2022-10-22T13:51:45.511Z,21.86
2022-10-22T13:54:18.062Z,21.59
2022-10-22T13:56:46.098Z,21.15
2022-10-22T13:59:16.249Z,21.14
2022-10-22T14:01:46.830Z,21.03
2022-10-22T14:04:15.783Z,21.22
2022-10-22T14:06:43.956Z,21.17
2022-10-22T14:09:16.969Z,21.31
2022-10-22T14:11:44.826Z,21.19
2022-10-22T14:14:17.013Z,21.37
2022-10-22T14:16:45.071Z,21.55
2022-10-22T14:19:17.744Z,21.30
2022-10-22T14:21:45.739Z,21.20
2022-10-22T14:24:13.845Z,21.24
2022-10-22T14:26:43.056Z,21.32
2022-10-22T14:29:11.844Z,21.34
2022-10-22T14:34:15.083Z,21.44
2022-10-22T14:36:44.566Z,21.12
2022-10-22T14:39:12.607Z,21.76
2022-10-22T14:41:41.208Z,21.92
2022-10-22T14:44:13.942Z,21.64
2022-10-22T14:46:44.197Z,21.09
2022-10-22T14:49:12.393Z,21.35
2022-10-22T14:51:40.573Z,21.16
2022-10-22T14:54:08.506Z,21.30
2022-10-22T14:59:05.405Z,21.46
2022-10-22T15:01:35.064Z,21.39
2022-10-22T15:04:03.020Z,21.15
2022-10-22T15:06:30.971Z,21.08
2022-10-22T15:08:58.966Z,20.81
2022-10-22T15:11:26.952Z,20.93
2022-10-22T15:13:54.833Z,20.77
2022-10-22T15:16:22.806Z,22.10
2022-10-22T15:18:53.113Z,22.86
2022-10-22T15:21:22.824Z,23.87
2022-10-22T15:23:50.866Z,23.51
2022-10-22T15:26:19.264Z,22.39
2022-10-22T15:28:47.360Z,21.43
2022-10-22T15:31:16.073Z,21.23
2022-10-22T15:33:44.844Z,20.77
2022-10-22T15:36:17.920Z,20.33
2022-10-22T15:38:45.920Z,20.07
2022-10-22T15:41:14.147Z,20.06
2022-10-22T15:43:42.236Z,19.77
2022-10-22T15:46:13.778Z,19.68
2022-10-22T15:48:42.323Z,19.85
2022-10-22T15:51:12.268Z,19.78
2022-10-22T15:53:42.163Z,19.73
2022-10-22T15:56:11.649Z,19.68
2022-10-22T15:58:39.727Z,19.84
2022-10-22T16:01:09.793Z,19.91
2022-10-22T16:03:38.350Z,19.97
2022-10-22T16:06:08.168Z,19.89
2022-10-22T16:08:37.470Z,19.67
2022-10-22T16:11:07.295Z,19.68
2022-10-22T16:13:37.079Z,19.49
2022-10-22T16:16:08.120Z,19.63
2022-10-22T16:18:36.233Z,19.37
2022-10-22T16:21:04.493Z,19.32
2022-10-22T16:23:34.651Z,19.12
2022-10-22T16:26:03.958Z,19.04
2022-10-22T16:31:06.087Z,18.78
2022-10-22T16:33:41.474Z,18.38
2022-10-22T16:36:12.010Z,18.71
2022-10-22T16:38:40.154Z,18.70
2022-10-22T16:41:10.017Z,18.41
2022-10-22T16:43:39.994Z,18.15
2022-10-22T16:46:09.931Z,17.92
2022-10-22T16:48:40.570Z,18.00
2022-10-22T16:51:10.515Z,17.93
2022-10-22T16:53:38.685Z,17.62
2022-10-22T16:56:10.006Z,17.40
2022-10-22T16:58:39.993Z,17.10
2022-10-22T17:01:09.057Z,16.95
2022-10-22T17:03:40.040Z,17.16
2022-10-22T19:40:41.225Z,13.82
2022-10-22T19:43:18.226Z,13.78
2022-10-22T19:45:51.159Z,13.62
2022-10-22T19:48:28.707Z,13.71
2022-10-22T19:51:03.650Z,13.89
2022-10-22T19:53:33.108Z,14.11
2022-10-22T19:56:05.895Z,13.90
2022-10-22T19:58:37.393Z,13.68
2022-10-22T20:01:11.111Z,13.84
2022-10-22T20:03:48.681Z,13.99
2022-10-22T20:06:22.161Z,13.87
2022-10-22T20:08:56.036Z,14.00
2022-10-22T20:11:30.573Z,13.70
2022-10-22T20:14:01.924Z,13.79
2022-10-22T20:16:31.532Z,13.46
2022-10-22T20:19:06.263Z,13.61
2022-10-22T20:21:37.667Z,13.83
2022-10-22T20:24:06.698Z,13.72
2022-10-22T20:26:35.870Z,13.62
2022-10-22T20:29:05.715Z,13.54
2022-10-22T20:31:36.182Z,13.67
2022-10-22T20:34:07.477Z,13.51
2022-10-22T20:36:36.128Z,13.20
2022-10-22T20:39:09.888Z,13.66
2022-10-22T20:41:43.102Z,13.31
2022-10-22T20:44:16.601Z,13.52
2022-10-22T20:46:45.987Z,13.44
2022-10-22T20:49:19.789Z,13.54
2022-10-22T20:51:55.758Z,13.52
2022-10-22T20:54:24.582Z,13.35
2022-10-22T20:57:00.238Z,13.68
2022-10-22T20:59:43.602Z,13.71
2022-10-22T21:02:17.122Z,13.75
2022-10-22T21:04:46.578Z,13.74
2022-10-22T21:07:16.148Z,13.72
2022-10-22T21:09:47.461Z,13.49
2022-10-22T21:12:16.888Z,13.62
2022-10-22T21:14:56.748Z,13.61
2022-10-22T21:17:31.583Z,13.56
2022-10-22T21:20:02.562Z,13.55
2022-10-22T21:22:34.319Z,13.10
2022-10-22T21:25:03.892Z,13.49
2022-10-22T21:27:35.414Z,13.42
2022-10-22T21:30:09.434Z,13.54
2022-10-22T21:32:45.121Z,13.59
2022-10-22T21:35:16.930Z,13.51
2022-10-22T21:37:51.195Z,13.49
2022-10-22T21:40:20.032Z,13.31
2022-10-22T21:42:50.899Z,13.46
2022-10-22T21:45:23.256Z,13.25
2022-10-22T21:47:55.652Z,13.30
2022-10-22T21:50:24.613Z,13.45
2022-10-22T21:52:56.628Z,13.42
2022-10-22T21:55:28.771Z,13.42
2022-10-22T21:58:02.726Z,13.44
2022-10-22T22:00:35.575Z,13.43
2022-10-22T22:03:04.962Z,13.28
2022-10-22T22:05:34.063Z,13.17
2022-10-22T22:08:04.685Z,13.23
2022-10-22T22:10:34.115Z,13.34
2022-10-22T22:13:02.741Z,13.19
2022-10-22T22:15:34.802Z,13.09
2022-10-22T22:18:07.371Z,12.96
2022-10-22T22:20:38.599Z,12.98
2022-10-22T22:23:14.947Z,13.26
2022-10-22T22:25:50.574Z,13.30
2022-10-22T22:28:22.115Z,13.28
2022-10-22T22:30:55.550Z,12.82
2022-10-22T22:33:27.442Z,13.18
2022-10-22T22:36:03.143Z,13.19
2022-10-22T22:38:31.812Z,13.16
2022-10-22T22:41:00.781Z,12.70
2022-10-22T22:43:32.770Z,13.06
2022-10-22T22:46:08.439Z,12.83
2022-10-22T22:48:37.619Z,12.93
2022-10-22T22:51:08.443Z,12.66
2022-10-22T22:53:37.659Z,12.89
2022-10-22T22:56:12.998Z,12.65
2022-10-22T22:58:48.654Z,12.82
2022-10-22T23:01:20.888Z,12.66
2022-10-22T23:03:56.630Z,12.77
2022-10-22T23:06:28.781Z,12.75
2022-10-22T23:08:58.386Z,12.71
2022-10-22T23:11:32.007Z,12.78
2022-10-22T23:14:02.244Z,12.72
2022-10-22T23:16:37.879Z,12.33
2022-10-22T23:19:08.262Z,12.55
2022-10-22T23:21:39.251Z,12.56
2022-10-22T23:24:09.879Z,12.55
2022-10-22T23:26:40.245Z,12.68
2022-10-22T23:29:11.848Z,12.48
2022-10-22T23:31:41.888Z,12.58
2022-10-22T23:34:12.494Z,12.33
2022-10-22T23:36:40.860Z,12.50
2022-10-22T23:39:12.398Z,12.28
2022-10-22T23:41:44.194Z,12.20
2022-10-22T23:44:16.867Z,12.01
2022-10-22T23:46:47.071Z,12.30
2022-10-22T23:49:17.719Z,12.17
2022-10-22T23:51:47.549Z,12.21
2022-10-22T23:54:23.434Z,12.27
2022-10-22T23:56:58.623Z,12.32
2022-10-22T23:59:30.430Z,12.23
